TED STEVENS ANCHORAGE INTL

PANC (ANC)
Anchorage, Alaska
Towered

Vatsim Metar:
PANC 210853Z 36005KT 10SM CLR M01/M05 A3051 RMK AO2 SLP335 T10061050 400331050 53008

No ATC Online

Traffic

Inbound:
Ident
Type
Name
ETA
Phase
UPS69
H/B763/L
Nicolas Rey Benitez SPJC
14:55 Z
Cruse

Outbound:
Ident
Type
Name
Destination
Phase
UAL100
B738/L
Vince Hendrickson TIST
KSEA
Boarding